createdAt,value
2023-05-17T00:00:55.201Z,99.90
2023-05-17T00:03:21.971Z,99.10
2023-05-17T00:05:48.715Z,99.90
2023-05-17T00:08:15.462Z,99.30
2023-05-17T00:10:43.290Z,99.30
2023-05-17T00:13:09.982Z,99.30
2023-05-17T00:15:36.658Z,99.10
2023-05-17T00:18:03.456Z,99.10
2023-05-17T00:20:30.372Z,98.90
2023-05-17T00:22:57.141Z,99.20
2023-05-17T00:25:23.781Z,98.10
2023-05-17T00:27:50.623Z,98.70
2023-05-17T00:30:17.327Z,98.20
2023-05-17T00:32:46.606Z,98.40
2023-05-17T00:35:13.522Z,98.60
2023-05-17T00:37:40.257Z,98.50
2023-05-17T00:40:07.970Z,99.20
2023-05-17T00:42:34.774Z,99.00
2023-05-17T00:45:01.444Z,98.70
2023-05-17T00:47:28.284Z,98.10
2023-05-17T00:49:55.198Z,97.70
2023-05-17T00:52:21.944Z,98.00
2023-05-17T00:54:50.402Z,98.00
2023-05-17T00:57:17.153Z,97.70
2023-05-17T00:59:45.025Z,98.20
2023-05-17T01:02:12.067Z,97.80
2023-05-17T01:04:41.432Z,98.10
2023-05-17T01:07:09.774Z,98.00
2023-05-17T01:09:37.159Z,97.60
2023-05-17T01:12:37.821Z,98.20
2023-05-17T01:15:31.465Z,99.30
2023-05-17T01:18:16.480Z,97.70
2023-05-17T01:20:45.142Z,96.70
2023-05-17T01:23:23.494Z,97.70
2023-05-17T01:25:54.271Z,96.40
2023-05-17T01:28:22.810Z,97.70
2023-05-17T01:30:52.075Z,97.00
2023-05-17T01:33:20.378Z,97.80
2023-05-17T01:35:47.136Z,97.20
2023-05-17T01:38:13.784Z,97.50
2023-05-17T01:40:59.151Z,97.40
2023-05-17T01:43:47.954Z,97.90
2023-05-17T01:46:29.919Z,96.70
2023-05-17T01:49:14.737Z,96.10
2023-05-17T01:52:14.059Z,96.60
2023-05-17T01:54:50.937Z,96.90
2023-05-17T01:57:24.500Z,96.70
2023-05-17T01:59:52.328Z,96.80
2023-05-17T02:02:22.287Z,95.80
2023-05-17T02:04:49.214Z,95.90
2023-05-17T02:07:16.003Z,95.80
2023-05-17T02:09:42.690Z,96.00
2023-05-17T02:12:10.373Z,98.40
2023-05-17T02:14:37.024Z,95.30
2023-05-17T02:17:05.932Z,96.00
2023-05-17T02:19:32.867Z,95.00
2023-05-17T02:22:00.068Z,96.50
2023-05-17T02:24:26.957Z,95.40
2023-05-17T02:26:53.672Z,95.00
2023-05-17T02:29:20.418Z,94.50
2023-05-17T02:31:47.181Z,94.60
2023-05-17T02:34:13.871Z,94.50
2023-05-17T02:36:41.115Z,94.50
2023-05-17T02:39:07.790Z,94.60
2023-05-17T02:41:34.433Z,95.80
2023-05-17T02:44:01.216Z,94.40
2023-05-17T02:46:27.889Z,97.10
2023-05-17T02:48:54.624Z,94.50
2023-05-17T02:51:21.324Z,94.80
2023-05-17T02:53:48.214Z,94.00
2023-05-17T02:56:14.889Z,96.40
2023-05-17T02:58:41.741Z,93.80
2023-05-17T03:01:09.480Z,94.30
2023-05-17T03:03:36.525Z,94.60
2023-05-17T03:06:05.196Z,94.20
2023-05-17T03:08:32.834Z,93.90
2023-05-17T03:11:01.420Z,93.80
2023-05-17T03:13:28.236Z,93.90
2023-05-17T03:15:54.936Z,93.80
2023-05-17T03:18:21.992Z,96.70
2023-05-17T03:20:48.855Z,93.40
2023-05-17T03:23:15.916Z,93.40
2023-05-17T03:25:51.780Z,92.80
2023-05-17T03:28:18.527Z,93.20
2023-05-17T03:30:45.688Z,92.40
2023-05-17T03:33:13.321Z,93.00
2023-05-17T03:35:40.069Z,93.00
2023-05-17T03:38:06.926Z,93.30
2023-05-17T03:40:33.634Z,92.90
2023-05-17T03:43:01.284Z,92.70
2023-05-17T03:45:29.105Z,92.80
2023-05-17T03:47:56.219Z,93.10
2023-05-17T03:50:24.029Z,93.00
2023-05-17T03:52:50.913Z,92.50
2023-05-17T03:55:18.545Z,92.70
2023-05-17T03:57:45.176Z,92.80
2023-05-17T04:00:12.697Z,93.10
2023-05-17T04:02:42.279Z,93.10
2023-05-17T04:05:10.738Z,93.00
2023-05-17T04:07:37.407Z,92.70
2023-05-17T04:10:04.352Z,92.70
2023-05-17T04:12:31.039Z,92.70
2023-05-17T04:14:57.693Z,93.70
2023-05-17T04:17:25.167Z,92.50
2023-05-17T04:19:51.981Z,92.10
2023-05-17T04:22:21.060Z,92.30
2023-05-17T04:24:48.054Z,92.10
2023-05-17T04:27:15.224Z,92.50
2023-05-17T04:29:44.776Z,92.20
2023-05-17T04:32:11.432Z,92.20
2023-05-17T04:34:38.901Z,92.20
2023-05-17T04:37:06.829Z,92.50
2023-05-17T04:39:35.745Z,93.70
2023-05-17T04:42:03.590Z,91.10
2023-05-17T04:44:31.450Z,91.20
2023-05-17T04:46:58.123Z,92.80
2023-05-17T04:49:26.118Z,90.20
2023-05-17T04:51:54.352Z,90.60
2023-05-17T04:54:21.223Z,90.50
2023-05-17T04:56:49.058Z,90.50
2023-05-17T04:59:24.220Z,89.60
2023-05-17T05:01:51.038Z,89.60
2023-05-17T05:04:17.947Z,89.70
2023-05-17T05:06:47.859Z,90.10
2023-05-17T05:09:15.930Z,1.00
2023-05-17T05:11:42.801Z,1.00
2023-05-17T05:14:09.824Z,1.00
2023-05-17T05:16:37.178Z,1.00
2023-05-17T05:19:04.173Z,1.00
2023-05-17T05:21:31.530Z,1.00
2023-05-17T05:23:59.732Z,1.00
2023-05-17T05:26:26.478Z,1.00
2023-05-17T05:28:57.980Z,1.00
2023-05-17T05:31:24.998Z,1.00
2023-05-17T05:33:53.959Z,1.00
2023-05-17T05:36:20.895Z,1.00
2023-05-17T05:38:49.122Z,1.00
2023-05-17T05:41:16.485Z,1.00
2023-05-17T05:43:43.274Z,1.00
2023-05-17T05:46:10.257Z,1.00
2023-05-17T05:48:39.507Z,1.00
2023-05-17T05:51:07.054Z,1.00
2023-05-17T05:53:35.339Z,1.00
2023-05-17T05:56:02.400Z,1.00
2023-05-17T05:58:30.352Z,1.00
2023-05-17T06:01:00.164Z,1.00
2023-05-17T06:03:26.831Z,1.00
2023-05-17T06:05:53.698Z,1.00
2023-05-17T06:08:20.518Z,1.00
2023-05-17T06:10:47.476Z,1.00
2023-05-17T06:13:14.234Z,1.00
2023-05-17T06:15:41.322Z,1.00
2023-05-17T06:18:08.157Z,1.00
2023-05-17T06:20:35.024Z,10.20
2023-05-17T06:23:02.005Z,1.00
2023-05-17T06:25:28.695Z,99.90
2023-05-17T06:27:55.350Z,99.90
2023-05-17T06:30:22.257Z,97.20
2023-05-17T06:32:49.127Z,93.00
2023-05-17T06:35:16.074Z,99.60
2023-05-17T06:37:42.726Z,94.30
2023-05-17T06:40:16.755Z,97.60
2023-05-17T06:42:43.883Z,92.50
2023-05-17T06:45:11.942Z,94.40
2023-05-17T06:47:38.822Z,98.40
2023-05-17T06:50:06.895Z,93.60
2023-05-17T06:52:33.687Z,98.00
2023-05-17T06:55:00.491Z,91.60
2023-05-17T06:57:27.405Z,90.10
2023-05-17T06:59:54.161Z,91.20
2023-05-17T07:02:20.890Z,90.90
2023-05-17T07:04:47.562Z,93.20
2023-05-17T07:07:14.396Z,95.80
2023-05-17T07:09:41.328Z,93.20
2023-05-17T07:12:08.157Z,87.90
2023-05-17T07:14:35.004Z,91.20
2023-05-17T07:17:01.656Z,93.10
2023-05-17T07:19:28.442Z,90.30
2023-05-17T07:21:55.263Z,90.40
2023-05-17T07:24:21.934Z,88.00
2023-05-17T07:26:50.813Z,87.10
2023-05-17T07:29:18.767Z,90.40
2023-05-17T07:31:45.436Z,99.70
2023-05-17T07:34:13.159Z,97.30
2023-05-17T07:36:40.074Z,93.10
2023-05-17T07:39:06.954Z,98.80
2023-05-17T07:41:34.163Z,96.00
2023-05-17T07:44:00.896Z,93.60
2023-05-17T07:46:27.677Z,96.40
2023-05-17T07:48:57.296Z,95.20
2023-05-17T07:51:25.549Z,98.90
2023-05-17T07:53:52.189Z,98.90
2023-05-17T07:56:18.930Z,95.30
2023-05-17T07:58:47.979Z,94.80
2023-05-17T08:01:14.904Z,94.70
2023-05-17T08:03:47.790Z,90.90
2023-05-17T08:06:18.126Z,99.30
2023-05-17T08:08:45.243Z,99.60
2023-05-17T08:11:13.113Z,91.30
2023-05-17T08:13:40.200Z,98.80
2023-05-17T08:16:14.207Z,96.20
2023-05-17T08:18:45.046Z,99.00
2023-05-17T08:21:12.271Z,96.10
2023-05-17T08:23:40.749Z,97.10
2023-05-17T08:26:07.429Z,97.60
2023-05-17T08:28:34.673Z,99.10
2023-05-17T08:31:01.910Z,97.50
2023-05-17T08:33:28.842Z,93.50
2023-05-17T08:35:57.691Z,90.80
2023-05-17T08:38:24.393Z,97.20
2023-05-17T08:40:55.314Z,99.20
2023-05-17T08:43:24.202Z,98.90
2023-05-17T08:45:53.315Z,94.40
2023-05-17T08:48:22.379Z,97.70
2023-05-17T08:50:52.653Z,99.60
2023-05-17T08:53:19.697Z,97.50
2023-05-17T08:55:50.107Z,97.30
2023-05-17T08:58:20.669Z,94.30
2023-05-17T09:00:49.172Z,93.30
2023-05-17T09:03:18.648Z,95.40
2023-05-17T09:05:45.822Z,97.90
2023-05-17T09:08:14.071Z,97.50
2023-05-17T09:10:42.356Z,96.00
2023-05-17T09:13:15.407Z,92.00
2023-05-17T09:15:51.713Z,93.50
2023-05-17T09:18:19.644Z,95.80
2023-05-17T09:20:52.774Z,93.40
2023-05-17T09:23:21.340Z,99.70
2023-05-17T09:25:49.269Z,92.00
2023-05-17T09:28:19.293Z,95.80
2023-05-17T09:30:49.215Z,90.00
2023-05-17T09:33:18.552Z,96.10
2023-05-17T09:35:45.766Z,98.70
2023-05-17T09:38:16.068Z,94.20
2023-05-17T09:40:50.546Z,95.50
2023-05-17T09:43:23.872Z,99.10
2023-05-17T09:48:45.465Z,95.90
2023-05-17T09:51:13.162Z,96.10
2023-05-17T09:53:41.557Z,94.20
2023-05-17T09:56:10.358Z,99.00
2023-05-17T09:59:17.785Z,92.60
2023-05-17T10:01:35.054Z,98.10
2023-05-17T10:04:02.837Z,93.70
2023-05-17T10:06:44.762Z,92.50
2023-05-17T10:09:15.936Z,88.40
2023-05-17T10:11:46.645Z,86.90
2023-05-17T10:14:18.891Z,85.80
2023-05-17T10:16:46.310Z,92.00
2023-05-17T10:19:14.102Z,89.10
2023-05-17T10:21:42.345Z,86.60
2023-05-17T10:24:11.293Z,86.00
2023-05-17T10:26:38.722Z,85.50
2023-05-17T10:29:06.112Z,87.30
2023-05-17T10:31:34.378Z,89.00
2023-05-17T10:34:01.997Z,93.90
2023-05-17T10:36:29.635Z,90.10
2023-05-17T10:38:56.925Z,88.60
2023-05-17T10:41:27.350Z,91.40
2023-05-17T10:43:55.321Z,91.50
2023-05-17T10:46:23.463Z,92.90
2023-05-17T10:48:55.310Z,95.60
2023-05-17T10:51:29.766Z,91.00
2023-05-17T10:54:02.710Z,92.50
2023-05-17T10:56:33.199Z,89.20
2023-05-17T10:59:22.212Z,90.60
2023-05-17T11:01:59.972Z,91.70
2023-05-17T11:04:44.824Z,90.30
2023-05-17T11:07:17.838Z,89.60
2023-05-17T11:09:45.457Z,94.10
2023-05-17T11:12:14.108Z,90.00
2023-05-17T11:14:48.722Z,91.50
2023-05-17T11:17:17.836Z,90.90
2023-05-17T11:20:02.384Z,90.30
2023-05-17T11:22:38.500Z,90.30
2023-05-17T11:25:08.496Z,91.10
2023-05-17T11:27:43.063Z,90.50
2023-05-17T11:30:24.582Z,91.10
2023-05-17T11:32:55.215Z,94.20
2023-05-17T11:35:26.310Z,90.40
2023-05-17T11:37:54.358Z,91.60
2023-05-17T11:40:28.248Z,94.20
2023-05-17T11:43:21.603Z,92.20
2023-05-17T11:46:01.376Z,91.50
2023-05-17T11:48:30.376Z,90.40
2023-05-17T11:50:58.034Z,88.60
2023-05-17T11:53:27.336Z,91.30
2023-05-17T11:55:54.126Z,92.70
2023-05-17T11:58:25.520Z,93.60
2023-05-17T12:00:57.029Z,96.00
2023-05-17T12:03:29.077Z,98.00
2023-05-17T12:06:06.833Z,98.40
2023-05-17T12:08:35.102Z,94.10
2023-05-17T12:11:02.552Z,90.90
2023-05-17T12:13:34.219Z,97.30
2023-05-17T12:16:05.579Z,91.20
2023-05-17T12:18:39.323Z,94.90
2023-05-17T12:21:07.522Z,94.00
2023-05-17T12:23:35.877Z,92.70
2023-05-17T12:26:16.764Z,93.20
2023-05-17T12:28:46.220Z,90.60
2023-05-17T12:31:16.837Z,93.20
2023-05-17T12:33:44.979Z,90.20
2023-05-17T12:36:13.604Z,90.70
2023-05-17T12:38:41.852Z,95.80
2023-05-17T12:41:13.492Z,90.80
2023-05-17T12:43:41.309Z,91.30
2023-05-17T12:46:11.501Z,89.20
2023-05-17T12:48:41.797Z,94.50
2023-05-17T12:51:13.828Z,90.10
2023-05-17T12:54:00.753Z,93.40
2023-05-17T12:56:29.015Z,87.80
2023-05-17T12:59:20.672Z,90.40
2023-05-17T13:01:57.770Z,90.30
2023-05-17T13:04:32.974Z,88.00
2023-05-17T13:07:02.169Z,86.50
2023-05-17T13:09:33.023Z,88.00
2023-05-17T13:12:06.751Z,87.80
2023-05-17T13:14:46.734Z,86.40
2023-05-17T13:17:25.610Z,87.40
2023-05-17T13:19:53.161Z,86.90
2023-05-17T13:22:20.024Z,87.50
2023-05-17T13:24:46.737Z,89.40
2023-05-17T13:27:13.478Z,88.80
2023-05-17T13:29:41.813Z,87.00
2023-05-17T13:32:11.373Z,88.10
2023-05-17T13:34:38.581Z,86.10
2023-05-17T13:37:09.397Z,87.80
2023-05-17T13:39:38.148Z,85.70
2023-05-17T13:42:05.611Z,86.40
2023-05-17T13:44:32.714Z,86.20
2023-05-17T13:46:59.384Z,85.50
2023-05-17T13:49:26.713Z,85.20
2023-05-17T13:51:53.367Z,84.80
2023-05-17T13:54:25.922Z,87.70
2023-05-17T13:56:53.624Z,89.40
2023-05-17T13:59:20.278Z,89.60
2023-05-17T14:01:46.908Z,90.30
2023-05-17T14:04:13.678Z,90.50
2023-05-17T14:06:42.159Z,92.90
2023-05-17T14:09:09.096Z,87.70
2023-05-17T14:11:36.100Z,94.80
2023-05-17T14:14:04.111Z,86.80
2023-05-17T14:16:31.092Z,86.70
2023-05-17T14:18:57.856Z,88.30
2023-05-17T14:21:24.552Z,87.70
2023-05-17T14:23:51.339Z,86.50
2023-05-17T14:26:18.047Z,87.20
2023-05-17T14:28:44.728Z,90.80
2023-05-17T14:31:11.643Z,86.90
2023-05-17T14:33:38.354Z,90.30
2023-05-17T14:36:05.238Z,87.10
2023-05-17T14:38:31.954Z,94.00
2023-05-17T14:41:00.654Z,93.70
2023-05-17T14:43:27.580Z,92.80
2023-05-17T14:45:54.262Z,86.70
2023-05-17T14:48:21.070Z,87.90
2023-05-17T14:50:47.832Z,91.40
2023-05-17T14:53:14.459Z,91.70
2023-05-17T14:55:41.693Z,87.50
2023-05-17T14:58:08.475Z,86.20
2023-05-17T15:00:35.415Z,87.20
2023-05-17T15:03:02.926Z,90.90
2023-05-17T15:05:30.114Z,87.20
2023-05-17T15:07:57.818Z,87.60
2023-05-17T15:10:24.504Z,90.60
2023-05-17T15:12:52.286Z,87.80
2023-05-17T15:15:21.966Z,88.60
2023-05-17T15:17:48.789Z,87.40
2023-05-17T15:20:15.874Z,87.90
2023-05-17T15:22:42.544Z,87.40
2023-05-17T15:25:09.451Z,88.90
2023-05-17T15:27:36.274Z,90.70
2023-05-17T15:30:02.958Z,87.40
2023-05-17T15:32:29.641Z,85.70
2023-05-17T15:34:56.309Z,85.70
2023-05-17T15:37:23.000Z,94.80
2023-05-17T15:39:49.641Z,91.20
2023-05-17T15:42:16.389Z,88.90
2023-05-17T15:44:43.004Z,88.80
2023-05-17T15:47:09.719Z,88.60
2023-05-17T15:49:36.472Z,89.20
2023-05-17T15:52:03.206Z,87.90
2023-05-17T15:54:29.968Z,88.40
2023-05-17T15:56:56.635Z,92.10
2023-05-17T15:59:23.417Z,86.10
2023-05-17T16:01:50.078Z,86.40
2023-05-17T16:04:16.811Z,85.20
2023-05-17T16:06:43.738Z,85.00
2023-05-17T16:09:11.640Z,85.70
2023-05-17T16:11:38.341Z,86.10
2023-05-17T16:14:05.129Z,86.30
2023-05-17T16:16:31.770Z,86.30
2023-05-17T16:18:59.276Z,88.20
2023-05-17T16:21:26.127Z,90.50
2023-05-17T16:23:52.907Z,88.90
2023-05-17T16:26:19.840Z,86.40
2023-05-17T16:28:46.757Z,87.70
2023-05-17T16:31:13.516Z,87.40
2023-05-17T16:33:41.470Z,87.20
2023-05-17T16:36:08.914Z,90.40
2023-05-17T16:38:35.778Z,86.50
2023-05-17T16:41:03.333Z,86.30
2023-05-17T16:43:30.906Z,86.90
2023-05-17T16:45:57.803Z,1.00
2023-05-17T16:48:26.484Z,1.00
2023-05-17T16:50:53.200Z,1.00
2023-05-17T16:53:20.028Z,1.00
2023-05-17T16:55:46.702Z,1.00
2023-05-17T16:58:13.368Z,1.00
2023-05-17T17:00:40.425Z,1.00
2023-05-17T17:03:09.585Z,1.00
2023-05-17T17:05:36.874Z,1.00
2023-05-17T17:08:03.638Z,1.00
2023-05-17T17:10:30.662Z,1.00
2023-05-17T17:12:57.549Z,97.50
2023-05-17T17:15:24.598Z,96.10
2023-05-17T17:17:51.290Z,96.60
2023-05-17T17:20:18.247Z,90.20
2023-05-17T17:22:44.874Z,88.30
2023-05-17T17:25:11.599Z,89.30
2023-05-17T17:27:38.274Z,88.90
2023-05-17T17:30:06.210Z,89.40
2023-05-17T17:32:33.260Z,87.80
2023-05-17T17:35:00.329Z,99.90
2023-05-17T17:37:27.052Z,1.00
2023-05-17T17:39:53.754Z,1.00
2023-05-17T17:42:20.645Z,1.00
2023-05-17T17:44:47.440Z,1.00
2023-05-17T17:47:14.443Z,1.00
2023-05-17T17:49:41.252Z,1.00
2023-05-17T17:52:07.913Z,1.00
2023-05-17T17:54:34.595Z,1.00
2023-05-17T17:57:02.882Z,1.00
2023-05-17T17:59:29.601Z,1.00
2023-05-17T18:01:56.401Z,1.00
2023-05-17T18:04:23.177Z,1.00
2023-05-17T18:06:50.052Z,1.00
2023-05-17T18:09:16.917Z,99.90
2023-05-17T18:11:43.639Z,90.70
2023-05-17T18:14:10.413Z,96.20
2023-05-17T18:16:37.564Z,90.20
2023-05-17T18:19:04.463Z,88.50
2023-05-17T18:21:31.201Z,91.80
2023-05-17T18:23:57.966Z,89.60
2023-05-17T18:26:24.624Z,89.10
2023-05-17T18:28:51.300Z,89.60
2023-05-17T18:31:18.530Z,90.10
2023-05-17T18:33:45.777Z,89.40
2023-05-17T18:36:12.528Z,90.20
2023-05-17T18:38:39.338Z,91.90
2023-05-17T18:41:06.523Z,87.20
2023-05-17T18:43:33.332Z,90.60
2023-05-17T18:46:00.047Z,86.90
2023-05-17T18:48:27.645Z,1.00
2023-05-17T18:50:54.627Z,1.00
2023-05-17T18:53:21.289Z,1.00
2023-05-17T18:55:48.055Z,1.00
2023-05-17T18:58:14.720Z,1.00
2023-05-17T19:00:41.545Z,1.00
2023-05-17T19:03:08.282Z,1.00
2023-05-17T19:05:35.075Z,1.00
2023-05-17T19:08:01.803Z,1.00
2023-05-17T19:10:28.851Z,1.00
2023-05-17T19:12:55.771Z,1.00
2023-05-17T19:15:22.758Z,1.00
2023-05-17T19:17:49.568Z,1.00
2023-05-17T19:20:16.666Z,91.70
2023-05-17T19:22:43.413Z,87.20
2023-05-17T19:25:10.384Z,1.00
2023-05-17T19:27:37.081Z,1.00
2023-05-17T19:30:04.436Z,1.00
2023-05-17T19:32:32.953Z,1.00
2023-05-17T19:35:01.062Z,1.00
2023-05-17T19:37:28.325Z,1.00
2023-05-17T19:39:55.140Z,1.00
2023-05-17T19:42:21.822Z,1.00
2023-05-17T19:44:48.593Z,1.00
2023-05-17T19:47:15.338Z,1.00
2023-05-17T19:49:43.065Z,1.00
2023-05-17T19:52:09.800Z,1.00
2023-05-17T19:54:36.540Z,1.00
2023-05-17T19:57:03.296Z,1.00
2023-05-17T19:59:30.063Z,1.00
2023-05-17T20:01:57.432Z,1.00
2023-05-17T20:04:24.364Z,1.00
2023-05-17T20:06:51.578Z,1.00
2023-05-17T20:09:18.286Z,1.00
2023-05-17T20:11:44.938Z,1.00
2023-05-17T20:14:12.225Z,1.00
2023-05-17T20:16:39.109Z,1.00
2023-05-17T20:19:05.982Z,1.00
2023-05-17T20:21:33.290Z,1.00
2023-05-17T20:24:05.230Z,1.00
2023-05-17T20:26:36.233Z,1.00
2023-05-17T20:29:07.549Z,83.40
2023-05-17T20:31:35.593Z,84.50
2023-05-17T20:34:03.461Z,85.60
2023-05-17T20:36:31.203Z,85.60
2023-05-17T20:38:58.189Z,86.50
2023-05-17T20:41:24.832Z,87.10
2023-05-17T20:43:51.712Z,76.50
2023-05-17T20:46:18.876Z,83.30
2023-05-17T20:48:47.697Z,86.70
2023-05-17T20:51:17.701Z,1.00
2023-05-17T20:53:46.186Z,1.00
2023-05-17T20:56:14.115Z,1.00
2023-05-17T20:58:41.251Z,1.00
2023-05-17T21:01:07.914Z,1.00
2023-05-17T21:03:34.924Z,1.00
2023-05-17T21:06:02.320Z,1.00
2023-05-17T21:08:29.050Z,1.00
2023-05-17T21:10:56.138Z,1.00
2023-05-17T21:13:25.420Z,1.00
2023-05-17T21:15:55.826Z,1.00
2023-05-17T21:18:23.557Z,1.00
2023-05-17T21:20:51.611Z,1.00
2023-05-17T21:23:19.096Z,1.00
2023-05-17T21:25:45.792Z,1.00
2023-05-17T21:28:12.442Z,84.80
2023-05-17T21:30:39.104Z,86.30
2023-05-17T21:33:05.782Z,1.00
2023-05-17T21:35:32.753Z,1.00
2023-05-17T21:37:59.487Z,85.50
2023-05-17T21:40:26.326Z,85.20
2023-05-17T21:42:53.062Z,86.10
2023-05-17T21:45:19.816Z,91.30
2023-05-17T21:47:46.587Z,1.00
2023-05-17T21:50:13.432Z,1.00
2023-05-17T21:52:40.326Z,1.00
2023-05-17T21:55:07.793Z,1.00
2023-05-17T21:57:36.336Z,1.00
2023-05-17T22:00:05.832Z,85.80
2023-05-17T22:02:35.271Z,85.60
2023-05-17T22:05:02.250Z,86.80
2023-05-17T22:07:28.875Z,90.30
2023-05-17T22:09:55.609Z,85.50
2023-05-17T22:12:25.481Z,87.30
2023-05-17T22:14:56.886Z,85.80
2023-05-17T22:17:35.272Z,86.00
2023-05-17T22:20:10.102Z,86.60
2023-05-17T22:22:37.342Z,87.30
2023-05-17T22:25:04.814Z,87.60
2023-05-17T22:27:31.787Z,86.50
2023-05-17T22:29:58.470Z,86.50
2023-05-17T22:32:25.421Z,87.10
2023-05-17T22:34:52.840Z,86.90
2023-05-17T22:37:22.505Z,87.80
2023-05-17T22:39:49.530Z,87.40
2023-05-17T22:42:16.257Z,87.30
2023-05-17T22:44:42.947Z,87.00
2023-05-17T22:47:14.295Z,87.70
2023-05-17T22:49:41.546Z,87.60
2023-05-17T22:52:08.862Z,87.80
2023-05-17T22:54:37.314Z,87.60
2023-05-17T22:57:04.778Z,87.00
2023-05-17T22:59:32.768Z,87.20
2023-05-17T23:02:00.036Z,88.40
2023-05-17T23:04:29.911Z,88.00
2023-05-17T23:07:02.682Z,87.50
2023-05-17T23:09:33.685Z,88.20
2023-05-17T23:12:05.501Z,88.00
2023-05-17T23:14:34.133Z,87.90
2023-05-17T23:17:02.051Z,88.30
2023-05-17T23:19:30.177Z,88.30
2023-05-17T23:21:57.696Z,89.00
2023-05-17T23:24:25.753Z,88.20
2023-05-17T23:26:52.737Z,87.60
2023-05-17T23:29:19.978Z,86.90
2023-05-17T23:31:48.101Z,87.70
2023-05-17T23:34:15.524Z,87.40
2023-05-17T23:36:42.443Z,87.80
2023-05-17T23:39:09.388Z,87.90
2023-05-17T23:41:39.161Z,87.50
2023-05-17T23:44:06.175Z,87.90
2023-05-17T23:46:33.106Z,88.50
2023-05-17T23:48:59.888Z,87.50
2023-05-17T23:51:26.712Z,87.80
2023-05-17T23:53:53.352Z,88.00
2023-05-17T23:56:20.053Z,88.00
2023-05-17T23:58:46.784Z,88.50
